Time;durP1;ratioP1;P1;durP2;ratioP2;P2;SDS_P1;SDS_P2;PMS_P1;PMS_P2;Temp;Humidity;BMP_temperature;BMP_pressure;BME280_temperature;BME280_humidity;BME280_pressure;Samples;Min_cycle;Max_cycle;Signal;HPM_P1;HPM_P2
2023/06/12 00:02:13;;;;;;;7.38;6.40;;;;;;;;;;5070598;28;20055;-72
2023/06/12 00:04:43;;;;;;;8.07;6.05;;;;;;;;;;5070998;28;20074;-72
2023/06/12 00:07:09;;;;;;;9.00;6.50;;;;;;;;;;5070717;28;20044;-72
2023/06/12 00:09:36;;;;;;;7.35;6.47;;;;;;;;;;5070798;28;20055;-72
2023/06/12 00:12:03;;;;;;;6.65;5.97;;;;;;;;;;5070432;28;20044;-72
2023/06/12 00:14:29;;;;;;;7.70;6.57;;;;;;;;;;5070661;28;20052;-72
2023/06/12 00:16:56;;;;;;;8.23;5.90;;;;;;;;;;5071168;28;20049;-72
2023/06/12 00:19:23;;;;;;;8.10;6.75;;;;;;;;;;5070710;28;20063;-72
2023/06/12 00:21:52;;;;;;;6.97;6.20;;;;;;;;;;5070638;28;20041;-72
2023/06/12 00:24:19;;;;;;;7.93;6.15;;;;;;;;;;5070336;28;20131;-72
2023/06/12 00:26:45;;;;;;;7.57;6.13;;;;;;;;;;5070304;28;20041;-72
2023/06/12 00:29:12;;;;;;;10.18;6.32;;;;;;;;;;5069759;28;20052;-72
2023/06/12 00:31:38;;;;;;;7.97;5.90;;;;;;;;;;5070626;28;20067;-72
2023/06/12 00:34:05;;;;;;;7.25;6.07;;;;;;;;;;5070321;28;20048;-72
2023/06/12 00:36:32;;;;;;;7.70;6.53;;;;;;;;;;5070274;28;20051;-72
2023/06/12 00:39:00;;;;;;;7.13;6.13;;;;;;;;;;5070127;28;20044;-72
2023/06/12 00:41:27;;;;;;;6.82;6.13;;;;;;;;;;5069819;28;20414;-72
2023/06/12 00:43:53;;;;;;;7.88;6.60;;;;;;;;;;5070500;28;20048;-72
2023/06/12 00:46:20;;;;;;;7.05;6.20;;;;;;;;;;5070270;28;20071;-71
2023/06/12 00:48:47;;;;;;;7.90;6.57;;;;;;;;;;5070360;28;20044;-71
2023/06/12 00:51:13;;;;;;;10.30;6.35;;;;;;;;;;5069601;28;20071;-71
2023/06/12 00:53:40;;;;;;;8.32;6.20;;;;;;;;;;5070427;28;20521;-72
2023/06/12 00:56:08;;;;;;;8.82;6.43;;;;;;;;;;5069941;28;20045;-71
2023/06/12 00:58:35;;;;;;;9.18;6.72;;;;;;;;;;5070538;28;20044;-71
2023/06/12 01:01:03;;;;;;;8.23;6.57;;;;;;;;;;5069330;28;20494;-71
2023/06/12 01:03:32;;;;;;;9.38;6.78;;;;;;;;;;5070621;28;20098;-71
2023/06/12 01:05:58;;;;;;;10.98;7.00;;;;;;;;;;5069522;28;20044;-71
2023/06/12 01:08:30;;;;;;;9.25;6.20;;;;;;;;;;5070011;28;20041;-71
2023/06/12 01:10:58;;;;;;;9.88;7.05;;;;;;;;;;5068626;28;20072;-71
2023/06/12 01:13:27;;;;;;;10.85;6.70;;;;;;;;;;5070282;28;20048;-71
2023/06/12 01:15:53;;;;;;;8.48;6.43;;;;;;;;;;5069665;28;20493;-71
2023/06/12 01:18:21;;;;;;;9.50;6.47;;;;;;;;;;5070409;28;20052;-71
2023/06/12 01:20:48;;;;;;;9.10;6.15;;;;;;;;;;5069905;28;20387;-72
2023/06/12 01:23:31;;;;;;;9.63;6.95;;;;;;;;;;5069466;28;20049;-71
2023/06/12 01:26:25;;;;;;;18.52;10.23;;;;;;;;;;5069973;28;20464;-71
2023/06/12 01:29:36;;;;;;;11.30;7.70;;;;;;;;;;5070127;28;20056;-71
2023/06/12 01:32:08;;;;;;;10.27;7.45;;;;;;;;;;5069687;28;20049;-71
2023/06/12 01:34:50;;;;;;;9.25;6.82;;;;;;;;;;5069560;28;20054;-72
2023/06/12 01:37:25;;;;;;;6.28;5.55;;;;;;;;;;5069431;28;20044;-71
2023/06/12 01:39:57;;;;;;;8.00;6.18;;;;;;;;;;5069384;28;20041;-71
2023/06/12 01:42:25;;;;;;;8.35;6.07;;;;;;;;;;5071751;28;20049;-71
2023/06/12 01:44:52;;;;;;;7.40;5.97;;;;;;;;;;5073766;28;20055;-71
2023/06/12 01:47:20;;;;;;;7.60;6.05;;;;;;;;;;5073460;28;20044;-71
2023/06/12 01:49:46;;;;;;;6.75;6.00;;;;;;;;;;5073668;28;20048;-72
2023/06/12 01:52:13;;;;;;;9.05;5.90;;;;;;;;;;5073591;28;20531;-71
2023/06/12 01:54:40;;;;;;;9.23;6.13;;;;;;;;;;5072692;28;20052;-71
2023/06/12 01:57:08;;;;;;;8.35;6.20;;;;;;;;;;5073794;28;20121;-71
2023/06/12 01:59:34;;;;;;;9.45;6.70;;;;;;;;;;5072907;28;20486;-71
2023/06/12 02:02:01;;;;;;;9.65;6.68;;;;;;;;;;5074067;28;20048;-71
2023/06/12 02:04:30;;;;;;;8.98;6.10;;;;;;;;;;5072983;28;20406;-71
2023/06/12 02:06:57;;;;;;;12.68;6.80;;;;;;;;;;5073008;28;20053;-71
2023/06/12 02:09:24;;;;;;;9.60;6.95;;;;;;;;;;5072926;28;20051;-71
2023/06/12 02:11:50;;;;;;;7.80;6.15;;;;;;;;;;5072842;28;20502;-71
2023/06/12 02:14:17;;;;;;;9.35;6.50;;;;;;;;;;5072711;28;20047;-71
2023/06/12 02:16:45;;;;;;;9.02;6.63;;;;;;;;;;5073612;28;20571;-71
2023/06/12 02:19:12;;;;;;;11.13;6.45;;;;;;;;;;5072715;28;20448;-71
2023/06/12 02:21:40;;;;;;;13.23;7.22;;;;;;;;;;5072571;28;20060;-71
2023/06/12 02:24:07;;;;;;;12.07;7.30;;;;;;;;;;5072998;28;20048;-72
2023/06/12 02:26:35;;;;;;;11.23;7.05;;;;;;;;;;5073008;28;20094;-71
2023/06/12 02:29:09;;;;;;;8.85;6.43;;;;;;;;;;5073267;28;20049;-71
2023/06/12 02:31:36;;;;;;;11.10;7.13;;;;;;;;;;5072087;28;20091;-71
2023/06/12 02:34:03;;;;;;;11.23;7.18;;;;;;;;;;5072564;28;20055;-71
2023/06/12 02:36:30;;;;;;;9.20;6.15;;;;;;;;;;5072433;28;20558;-71
2023/06/12 02:38:58;;;;;;;8.70;6.65;;;;;;;;;;5072868;28;20041;-71
2023/06/12 02:41:25;;;;;;;8.95;6.03;;;;;;;;;;5071850;28;20050;-71
2023/06/12 02:43:52;;;;;;;6.95;5.93;;;;;;;;;;5072773;28;20048;-71
2023/06/12 02:46:19;;;;;;;8.55;6.20;;;;;;;;;;5071973;28;20044;-71
2023/06/12 02:48:45;;;;;;;8.00;6.20;;;;;;;;;;5072611;28;20059;-71
2023/06/12 02:51:12;;;;;;;8.07;5.90;;;;;;;;;;5071715;28;20056;-71
2023/06/12 02:53:38;;;;;;;9.05;6.43;;;;;;;;;;5072215;28;20055;-71
2023/06/12 02:56:06;;;;;;;7.30;6.05;;;;;;;;;;5071879;28;20040;-71
2023/06/12 02:58:34;;;;;;;8.90;6.35;;;;;;;;;;5072317;28;20049;-72
2023/06/12 03:01:00;;;;;;;8.07;5.93;;;;;;;;;;5072160;28;20052;-71
2023/06/12 03:03:29;;;;;;;6.72;5.55;;;;;;;;;;5072059;28;20055;-71
2023/06/12 03:05:55;;;;;;;7.70;6.25;;;;;;;;;;5072140;28;20106;-71
2023/06/12 03:08:22;;;;;;;7.90;6.20;;;;;;;;;;5071962;28;20478;-72
2023/06/12 03:10:48;;;;;;;9.50;7.15;;;;;;;;;;5059726;28;20409;-71
2023/06/12 03:13:16;;;;;;;10.18;6.22;;;;;;;;;;5052041;28;20049;-71
2023/06/12 03:15:43;;;;;;;8.75;6.32;;;;;;;;;;5051856;28;20049;-71
2023/06/12 03:18:09;;;;;;;10.18;6.22;;;;;;;;;;5051644;28;20414;-71
2023/06/12 03:20:36;;;;;;;7.85;5.95;;;;;;;;;;5051659;28;20512;-71
2023/06/12 03:23:03;;;;;;;9.13;5.93;;;;;;;;;;5051638;28;20045;-72
2023/06/12 03:25:29;;;;;;;7.95;6.25;;;;;;;;;;5047731;22;20055;-68
2023/06/12 03:27:56;;;;;;;10.98;6.85;;;;;;;;;;5031598;28;20045;-68
2023/06/12 03:30:24;;;;;;;9.77;6.95;;;;;;;;;;5031793;28;20123;-68
2023/06/12 03:32:52;;;;;;;10.55;6.72;;;;;;;;;;5032174;28;20045;-67
2023/06/12 03:35:20;;;;;;;10.27;7.03;;;;;;;;;;5032331;28;20060;-68
2023/06/12 03:37:46;;;;;;;9.93;7.20;;;;;;;;;;5031990;28;20052;-68
2023/06/12 03:40:13;;;;;;;11.00;7.55;;;;;;;;;;5031206;28;20053;-68
2023/06/12 03:42:40;;;;;;;9.35;6.60;;;;;;;;;;5031823;28;20392;-68
2023/06/12 03:45:08;;;;;;;8.68;6.45;;;;;;;;;;5031631;28;20045;-68
2023/06/12 03:47:36;;;;;;;6.90;6.20;;;;;;;;;;5031976;28;20510;-68
2023/06/12 03:50:02;;;;;;;8.07;6.80;;;;;;;;;;5031083;28;20396;-68
2023/06/12 03:52:29;;;;;;;8.93;6.57;;;;;;;;;;5031932;28;20045;-69
2023/06/12 03:54:55;;;;;;;9.02;6.32;;;;;;;;;;5031294;28;20047;-68
2023/06/12 03:57:22;;;;;;;7.97;6.60;;;;;;;;;;5031407;28;20487;-67
2023/06/12 03:59:49;;;;;;;9.27;6.18;;;;;;;;;;5031123;28;20045;-68
2023/06/12 04:02:16;;;;;;;7.40;6.03;;;;;;;;;;5031363;28;20486;-69
2023/06/12 04:04:44;;;;;;;9.10;6.20;;;;;;;;;;5030473;28;20434;-68
2023/06/12 04:07:13;;;;;;;8.45;6.40;;;;;;;;;;5031452;28;20132;-68
2023/06/12 04:09:39;;;;;;;7.00;6.25;;;;;;;;;;5030345;28;20056;-70
2023/06/12 04:12:07;;;;;;;12.45;6.78;;;;;;;;;;5030799;28;20383;-67
2023/06/12 04:14:33;;;;;;;9.35;6.75;;;;;;;;;;5031250;28;20137;-68
2023/06/12 04:17:00;;;;;;;7.63;6.53;;;;;;;;;;5030830;28;20437;-68
2023/06/12 04:19:27;;;;;;;8.07;6.13;;;;;;;;;;5031272;28;20060;-69
2023/06/12 04:21:55;;;;;;;8.55;6.03;;;;;;;;;;5030765;28;20487;-68
2023/06/12 04:24:22;;;;;;;7.20;5.85;;;;;;;;;;5030868;28;20517;-67
2023/06/12 04:26:49;;;;;;;9.48;6.07;;;;;;;;;;5030828;28;20078;-69
2023/06/12 04:29:17;;;;;;;9.65;6.47;;;;;;;;;;5031214;28;20097;-69
2023/06/12 04:31:43;;;;;;;9.27;6.53;;;;;;;;;;5030665;28;20055;-70
2023/06/12 04:34:13;;;;;;;8.38;6.00;;;;;;;;;;5031327;28;20557;-69
2023/06/12 04:36:39;;;;;;;7.68;6.35;;;;;;;;;;5030423;28;20495;-69
2023/06/12 04:39:11;;;;;;;9.43;6.15;;;;;;;;;;5031248;28;20049;-69
2023/06/12 04:41:38;;;;;;;8.13;6.38;;;;;;;;;;5030813;28;20427;-69
2023/06/12 04:44:06;;;;;;;8.55;6.75;;;;;;;;;;5031174;28;20351;-68
2023/06/12 04:46:33;;;;;;;9.18;6.15;;;;;;;;;;5030323;28;20465;-71
2023/06/12 04:49:00;;;;;;;8.10;6.72;;;;;;;;;;5030762;28;20050;-70
2023/06/12 04:51:26;;;;;;;7.32;6.13;;;;;;;;;;5030088;28;20045;-69
2023/06/12 04:53:55;;;;;;;7.65;5.80;;;;;;;;;;5030445;28;20049;-70
2023/06/12 04:56:23;;;;;;;9.15;6.05;;;;;;;;;;5030613;28;20050;-72
2023/06/12 04:58:50;;;;;;;8.10;5.78;;;;;;;;;;5029941;28;20426;-69
2023/06/12 05:01:19;;;;;;;7.32;5.80;;;;;;;;;;5030063;28;20049;-70
2023/06/12 05:03:46;;;;;;;9.25;5.78;;;;;;;;;;5030224;28;20049;-71
2023/06/12 05:06:12;;;;;;;11.27;5.43;;;;;;;;;;5030114;28;20495;-70
2023/06/12 05:08:40;;;;;;;7.13;5.97;;;;;;;;;;5030379;28;20046;-69
2023/06/12 05:11:06;;;;;;;5.65;4.93;;;;;;;;;;5029362;28;20041;-68
2023/06/12 05:13:35;;;;;;;6.47;4.95;;;;;;;;;;5030006;28;20045;-71
2023/06/12 05:16:01;;;;;;;6.25;5.10;;;;;;;;;;5029484;28;20049;-70
2023/06/12 05:18:28;;;;;;;6.78;5.20;;;;;;;;;;5029536;28;20263;-69
2023/06/12 05:20:54;;;;;;;8.48;5.57;;;;;;;;;;5029857;28;20050;-70
2023/06/12 05:23:21;;;;;;;6.30;5.13;;;;;;;;;;5030583;28;20057;-70
2023/06/12 05:25:47;;;;;;;6.13;4.88;;;;;;;;;;5030203;28;20049;-70
2023/06/12 05:28:15;;;;;;;7.18;5.20;;;;;;;;;;5030501;28;20047;-68
2023/06/12 05:30:44;;;;;;;7.07;4.57;;;;;;;;;;5029491;28;20085;-69
2023/06/12 05:33:10;;;;;;;10.48;4.93;;;;;;;;;;5030018;28;20180;-69
2023/06/12 05:35:37;;;;;;;6.18;5.03;;;;;;;;;;5029825;28;20052;-71
2023/06/12 05:38:03;;;;;;;8.02;4.88;;;;;;;;;;5030537;28;20064;-69
2023/06/12 05:40:30;;;;;;;7.38;4.68;;;;;;;;;;5029522;28;20411;-69
2023/06/12 05:42:59;;;;;;;8.20;5.15;;;;;;;;;;5030297;28;20054;-68
2023/06/12 05:45:25;;;;;;;11.35;5.03;;;;;;;;;;5029937;28;20052;-69
2023/06/12 05:47:53;;;;;;;6.85;4.65;;;;;;;;;;5026072;28;20052;-69
2023/06/12 05:50:20;;;;;;;9.38;4.88;;;;;;;;;;5009848;28;20042;-70
2023/06/12 05:52:47;;;;;;;8.00;5.00;;;;;;;;;;5010236;28;20271;-69
2023/06/12 05:55:13;;;;;;;8.43;4.53;;;;;;;;;;5010287;28;20062;-70
2023/06/12 05:57:40;;;;;;;6.70;4.70;;;;;;;;;;5010167;28;20057;-69
2023/06/12 06:00:10;;;;;;;5.68;4.38;;;;;;;;;;5009854;28;20048;-67
2023/06/12 06:02:38;;;;;;;11.00;5.13;;;;;;;;;;5018004;28;20061;-70
2023/06/12 06:05:09;;;;;;;8.15;4.80;;;;;;;;;;5029331;28;20085;-69
2023/06/12 06:07:36;;;;;;;6.70;4.65;;;;;;;;;;5029267;28;20388;-72
2023/06/12 06:10:03;;;;;;;9.13;5.07;;;;;;;;;;5030498;28;20041;-71
2023/06/12 06:12:29;;;;;;;10.63;4.75;;;;;;;;;;5030185;28;20049;-70
2023/06/12 06:14:56;;;;;;;7.13;4.40;;;;;;;;;;5030142;28;20422;-71
2023/06/12 06:17:23;;;;;;;7.13;4.47;;;;;;;;;;5027274;28;20059;-70
2023/06/12 06:19:50;;;;;;;8.30;4.55;;;;;;;;;;5029118;28;20423;-70
2023/06/12 06:22:18;;;;;;;9.25;4.88;;;;;;;;;;5028268;28;20050;-71
2023/06/12 06:24:45;;;;;;;7.65;4.78;;;;;;;;;;5026489;28;20052;-69
2023/06/12 06:27:11;;;;;;;5.90;4.50;;;;;;;;;;5012431;28;20048;-69
2023/06/12 06:29:38;;;;;;;7.65;4.90;;;;;;;;;;5011623;28;20053;-74
2023/06/12 06:32:05;;;;;;;6.68;4.90;;;;;;;;;;5012951;28;20412;-73
2023/06/12 06:34:32;;;;;;;10.82;4.95;;;;;;;;;;5013201;28;20206;-74
2023/06/12 06:36:58;;;;;;;10.25;4.72;;;;;;;;;;5030749;28;20041;-74
2023/06/12 06:39:26;;;;;;;7.68;4.68;;;;;;;;;;5021860;28;20046;-71
2023/06/12 06:41:53;;;;;;;10.45;4.65;;;;;;;;;;5027531;28;20069;-70
2023/06/12 06:44:19;;;;;;;7.55;4.70;;;;;;;;;;5030986;28;20045;-70
2023/06/12 06:46:46;;;;;;;7.90;5.28;;;;;;;;;;5031108;28;20056;-71
2023/06/12 06:49:13;;;;;;;9.57;4.90;;;;;;;;;;5028869;28;20186;-71
2023/06/12 06:51:39;;;;;;;9.38;4.93;;;;;;;;;;5029852;28;20042;-70
2023/06/12 06:54:06;;;;;;;12.55;5.10;;;;;;;;;;5030478;28;20037;-70
2023/06/12 06:56:34;;;;;;;9.23;5.07;;;;;;;;;;5032363;28;20306;-70
2023/06/12 06:59:00;;;;;;;8.13;5.32;;;;;;;;;;5030499;28;20088;-70
2023/06/12 07:01:29;;;;;;;11.25;4.68;;;;;;;;;;5028943;28;20085;-66
2023/06/12 07:03:55;;;;;;;9.90;4.80;;;;;;;;;;5031369;28;20506;-66
2023/06/12 07:06:22;;;;;;;12.65;4.90;;;;;;;;;;5031385;28;20545;-66
2023/06/12 07:08:48;;;;;;;11.25;5.05;;;;;;;;;;5029337;28;20046;-69
2023/06/12 07:11:16;;;;;;;11.07;4.72;;;;;;;;;;5031876;28;20049;-76
2023/06/12 07:13:44;;;;;;;10.90;5.10;;;;;;;;;;5031653;28;20495;-77
2023/06/12 07:16:11;;;;;;;11.43;4.97;;;;;;;;;;5031605;28;20246;-72
2023/06/12 07:18:37;;;;;;;5.82;4.38;;;;;;;;;;5014371;28;20053;-72
2023/06/12 07:21:04;;;;;;;18.35;5.07;;;;;;;;;;5019892;28;20094;-72
2023/06/12 07:23:30;;;;;;;9.15;5.38;;;;;;;;;;5031587;28;20136;-71
2023/06/12 07:25:57;;;;;;;8.90;4.78;;;;;;;;;;5032990;28;20056;-73
2023/06/12 07:28:23;;;;;;;13.98;5.63;;;;;;;;;;5032417;28;20045;-74
2023/06/12 07:30:51;;;;;;;12.27;4.43;;;;;;;;;;5032499;28;20049;-69
2023/06/12 07:33:18;;;;;;;9.43;5.45;;;;;;;;;;5020512;28;20044;-70
2023/06/12 07:35:45;;;;;;;14.07;5.05;;;;;;;;;;5010877;28;20137;-69
2023/06/12 07:38:13;;;;;;;11.77;5.18;;;;;;;;;;5028159;28;20407;-71
2023/06/12 07:40:39;;;;;;;6.35;4.60;;;;;;;;;;5030696;28;20068;-70
2023/06/12 07:43:06;;;;;;;8.55;5.20;;;;;;;;;;5032502;28;20415;-70
2023/06/12 07:45:32;;;;;;;8.68;5.28;;;;;;;;;;5031126;28;20049;-67
2023/06/12 07:48:00;;;;;;;10.60;4.65;;;;;;;;;;5015865;28;20042;-68
2023/06/12 07:50:27;;;;;;;10.60;5.07;;;;;;;;;;5029329;28;20080;-70
2023/06/12 07:52:53;;;;;;;18.55;5.45;;;;;;;;;;5031511;28;20107;-71
2023/06/12 07:55:21;;;;;;;10.07;5.68;;;;;;;;;;5032440;28;20056;-72
2023/06/12 07:57:49;;;;;;;10.63;4.88;;;;;;;;;;5031300;28;20073;-68
2023/06/12 08:00:17;;;;;;;7.82;4.95;;;;;;;;;;5031091;28;20136;-70
2023/06/12 08:02:45;;;;;;;7.72;4.63;;;;;;;;;;5017983;28;20088;-69
2023/06/12 08:05:13;;;;;;;8.93;4.78;;;;;;;;;;5019718;28;20053;-67
2023/06/12 08:07:41;;;;;;;10.32;4.88;;;;;;;;;;5023482;28;20045;-73
2023/06/12 08:10:09;;;;;;;12.00;5.22;;;;;;;;;;5025144;28;20045;-75
2023/06/12 08:12:35;;;;;;;8.75;5.10;;;;;;;;;;5028652;28;20492;-73
2023/06/12 08:15:02;;;;;;;13.25;5.50;;;;;;;;;;5031688;28;20095;-76
2023/06/12 08:17:29;;;;;;;9.93;4.95;;;;;;;;;;5027881;28;20042;-69
2023/06/12 08:19:56;;;;;;;11.25;4.65;;;;;;;;;;5021629;28;20542;-70
2023/06/12 08:22:24;;;;;;;13.05;4.90;;;;;;;;;;5030053;28;20049;-74
2023/06/12 08:24:51;;;;;;;7.13;4.75;;;;;;;;;;5029954;28;20073;-70
2023/06/12 08:27:18;;;;;;;9.63;4.85;;;;;;;;;;5031289;28;20474;-70
2023/06/12 08:29:45;;;;;;;9.13;5.15;;;;;;;;;;5010073;28;20041;-72
2023/06/12 08:32:12;;;;;;;9.65;5.22;;;;;;;;;;5024859;28;20037;-72
2023/06/12 08:34:38;;;;;;;12.82;4.72;;;;;;;;;;5030289;28;20052;-71
2023/06/12 08:37:05;;;;;;;10.35;5.15;;;;;;;;;;5029916;28;20046;-70
2023/06/12 08:39:33;;;;;;;7.40;5.05;;;;;;;;;;5011314;28;20065;-72
2023/06/12 08:42:04;;;;;;;11.43;4.93;;;;;;;;;;5029642;28;20045;-73
2023/06/12 08:44:31;;;;;;;6.68;4.90;;;;;;;;;;5026922;28;20087;-68
2023/06/12 08:47:01;;;;;;;8.55;4.80;;;;;;;;;;5026119;28;20446;-69
2023/06/12 08:49:28;;;;;;;7.88;4.93;;;;;;;;;;5024464;28;20048;-72
2023/06/12 08:51:55;;;;;;;4.90;4.30;;;;;;;;;;5028705;28;20045;-72
2023/06/12 08:54:22;;;;;;;8.48;4.75;;;;;;;;;;5029673;28;20132;-72
2023/06/12 08:56:54;;;;;;;8.27;4.85;;;;;;;;;;5021278;28;20510;-69
2023/06/12 08:59:20;;;;;;;;;;;;;;;;;;5013398;28;20060;-70
2023/06/12 09:01:52;;;;;;;5.45;4.40;;;;;;;;;;5029611;28;20029;-71
2023/06/12 09:04:26;;;;;;;;;;;;;;;;;;5029666;28;20107;-70
2023/06/12 09:07:01;;;;;;;7.63;4.80;;;;;;;;;;5030068;28;19921;-72
2023/06/12 09:09:37;;;;;;;9.45;4.72;;;;;;;;;;5030638;28;20049;-71
2023/06/12 09:12:07;;;;;;;5.80;4.63;;;;;;;;;;5029092;28;20049;-67
2023/06/12 09:14:34;;;;;;;6.90;4.70;;;;;;;;;;5030833;28;20046;-68
2023/06/12 09:17:01;;;;;;;5.68;4.45;;;;;;;;;;5030321;28;20427;-73
2023/06/12 09:19:35;;;;;;;5.80;4.45;;;;;;;;;;5030887;28;20072;-72
2023/06/12 09:22:02;;;;;;;5.38;4.15;;;;;;;;;;5030605;28;20045;-75
2023/06/12 09:24:29;;;;;;;4.90;4.45;;;;;;;;;;5056591;22;20047;-68
2023/06/12 09:26:56;;;;;;;6.82;4.95;;;;;;;;;;5069492;28;20047;-68
2023/06/12 09:29:28;;;;;;;7.03;3.97;;;;;;;;;;5051343;28;20045;-67
2023/06/12 09:31:55;;;;;;;7.70;4.50;;;;;;;;;;5047724;28;20040;-68
2023/06/12 09:34:25;;;;;;;6.97;4.30;;;;;;;;;;5049017;28;20041;-67
2023/06/12 09:36:51;;;;;;;5.72;4.75;;;;;;;;;;5048743;28;20049;-66
2023/06/12 09:39:25;;;;;;;7.88;4.25;;;;;;;;;;5048087;28;20045;-67
2023/06/12 09:41:52;;;;;;;5.45;4.30;;;;;;;;;;5046048;28;20041;-67
2023/06/12 09:44:21;;;;;;;4.55;4.00;;;;;;;;;;5049076;28;20271;-67
2023/06/12 09:46:49;;;;;;;4.13;3.72;;;;;;;;;;5048403;28;20045;-67
2023/06/12 09:49:15;;;;;;;4.38;3.97;;;;;;;;;;5048048;28;20142;-68
2023/06/12 09:51:46;;;;;;;5.10;3.95;;;;;;;;;;5044973;28;20051;-70
2023/06/12 09:54:16;;;;;;;4.93;4.00;;;;;;;;;;5049163;28;20059;-67
2023/06/12 09:56:44;;;;;;;6.32;4.30;;;;;;;;;;5048616;28;20056;-67
2023/06/12 09:59:16;;;;;;;6.32;4.72;;;;;;;;;;5049044;28;20055;-68
2023/06/12 10:01:47;;;;;;;5.13;4.63;;;;;;;;;;5048295;28;20056;-67
2023/06/12 10:04:21;;;;;;;5.22;4.15;;;;;;;;;;5048946;28;20041;-67
2023/06/12 10:06:50;;;;;;;5.15;4.50;;;;;;;;;;5053003;28;20510;-68
2023/06/12 10:09:17;;;;;;;7.15;4.45;;;;;;;;;;5050220;28;20318;-67
2023/06/12 10:11:46;;;;;;;4.80;4.30;;;;;;;;;;5050317;28;20051;-68
2023/06/12 10:14:13;;;;;;;4.40;4.00;;;;;;;;;;5053014;28;20040;-67
2023/06/12 10:16:44;;;;;;;5.63;4.28;;;;;;;;;;5056347;28;20045;-68
2023/06/12 10:19:12;;;;;;;4.30;3.90;;;;;;;;;;5060325;28;20088;-68
2023/06/12 10:21:42;;;;;;;4.60;4.00;;;;;;;;;;5051223;28;20053;-67
2023/06/12 10:24:09;;;;;;;6.38;3.75;;;;;;;;;;5052865;28;20052;-67
2023/06/12 10:26:36;;;;;;;5.40;4.22;;;;;;;;;;5053817;28;20045;-67
2023/06/12 10:29:23;;;;;;;5.10;4.25;;;;;;;;;;5071510;28;20044;-67
2023/06/12 10:31:49;;;;;;;4.72;4.32;;;;;;;;;;5067849;28;20346;-67
2023/06/12 10:34:17;;;;;;;4.63;4.22;;;;;;;;;;5072676;28;20414;-68
2023/06/12 10:36:47;;;;;;;5.15;3.97;;;;;;;;;;5052113;28;20402;-67
2023/06/12 10:39:15;;;;;;;9.18;4.10;;;;;;;;;;5068478;28;20139;-67
2023/06/12 10:41:52;;;;;;;6.25;4.10;;;;;;;;;;5053617;28;20095;-68
2023/06/12 10:44:49;;;;;;;4.60;3.90;;;;;;;;;;5047397;28;20437;-68
2023/06/12 10:47:19;;;;;;;8.90;4.53;;;;;;;;;;5036390;28;20064;-67
2023/06/12 10:49:58;;;;;;;5.90;4.75;;;;;;;;;;5050709;28;20506;-68
2023/06/12 10:52:26;;;;;;;7.88;4.20;;;;;;;;;;5049149;28;20040;-68
2023/06/12 10:55:18;;;;;;;6.57;4.25;;;;;;;;;;5051282;28;20041;-68
2023/06/12 10:57:48;;;;;;;6.80;4.07;;;;;;;;;;5049222;28;20052;-67
2023/06/12 11:00:17;;;;;;;4.47;4.07;;;;;;;;;;5050585;28;20049;-67
2023/06/12 11:02:45;;;;;;;4.35;3.95;;;;;;;;;;5052340;28;20059;-67
2023/06/12 11:05:12;;;;;;;4.30;3.88;;;;;;;;;;5049011;28;20494;-68
2023/06/12 11:07:41;;;;;;;4.60;3.90;;;;;;;;;;5060552;28;20048;-67
2023/06/12 11:10:11;;;;;;;5.72;4.10;;;;;;;;;;5049774;28;20335;-68
2023/06/12 11:12:46;;;;;;;6.18;4.32;;;;;;;;;;5049755;28;20041;-68
2023/06/12 11:15:13;;;;;;;5.13;3.92;;;;;;;;;;5051570;28;20558;-67
2023/06/12 11:17:39;;;;;;;4.30;3.90;;;;;;;;;;5051374;28;20041;-68
2023/06/12 11:20:07;;;;;;;4.60;4.00;;;;;;;;;;5050719;28;20049;-67
2023/06/12 11:22:34;;;;;;;4.60;4.00;;;;;;;;;;5049673;28;20159;-67
2023/06/12 11:25:03;;;;;;;4.63;4.10;;;;;;;;;;5056243;28;20036;-68
2023/06/12 11:27:31;;;;;;;7.97;4.03;;;;;;;;;;5071323;28;20574;-67
2023/06/12 11:30:06;;;;;;;5.03;4.20;;;;;;;;;;5070502;28;20401;-68
2023/06/12 11:32:33;;;;;;;4.00;3.60;;;;;;;;;;5061812;28;20041;-68
2023/06/12 11:35:01;;;;;;;4.82;4.25;;;;;;;;;;5051185;28;20049;-67
2023/06/12 11:37:28;;;;;;;4.78;3.80;;;;;;;;;;5049471;28;20051;-68
2023/06/12 11:40:00;;;;;;;5.57;4.25;;;;;;;;;;5050708;28;20044;-69
2023/06/12 11:42:28;;;;;;;4.60;3.63;;;;;;;;;;5050989;28;20271;-68
2023/06/12 11:44:55;;;;;;;5.00;4.50;;;;;;;;;;5051329;28;20053;-68
2023/06/12 11:47:21;;;;;;;4.97;3.97;;;;;;;;;;5048471;28;20041;-68
2023/06/12 11:49:48;;;;;;;4.55;4.15;;;;;;;;;;5049868;28;20055;-67
2023/06/12 11:52:15;;;;;;;6.43;4.32;;;;;;;;;;5050683;28;20044;-67
2023/06/12 11:54:59;;;;;;;6.18;4.05;;;;;;;;;;5050821;28;20562;-67
2023/06/12 11:57:28;;;;;;;4.53;4.10;;;;;;;;;;5051141;28;20102;-67
2023/06/12 11:59:57;;;;;;;5.13;4.10;;;;;;;;;;5048421;28;20055;-67
2023/06/12 12:02:29;;;;;;;4.88;4.20;;;;;;;;;;5047784;28;20045;-68
2023/06/12 12:04:56;;;;;;;4.25;3.78;;;;;;;;;;5046640;28;20172;-68
2023/06/12 12:07:23;;;;;;;4.75;3.88;;;;;;;;;;5048390;28;20088;-67
2023/06/12 12:09:50;;;;;;;5.25;4.25;;;;;;;;;;5048655;28;20418;-67
2023/06/12 12:12:16;;;;;;;10.85;4.45;;;;;;;;;;5049803;28;20127;-70
2023/06/12 12:14:50;;;;;;;4.70;3.75;;;;;;;;;;5048833;28;20512;-69
2023/06/12 12:17:18;;;;;;;5.15;4.15;;;;;;;;;;5046783;28;20154;-70
2023/06/12 12:19:47;;;;;;;4.72;4.22;;;;;;;;;;5048285;28;20045;-70
2023/06/12 12:22:15;;;;;;;4.32;3.92;;;;;;;;;;5047871;28;20388;-69
2023/06/12 12:24:42;;;;;;;5.45;4.15;;;;;;;;;;5048872;28;20060;-70
2023/06/12 12:27:12;;;;;;;4.68;4.28;;;;;;;;;;5049243;28;20053;-70
2023/06/12 12:29:39;;;;;;;4.35;3.25;;;;;;;;;;5055669;28;20044;-69
2023/06/12 12:32:10;;;;;;;5.18;4.68;;;;;;;;;;5046711;28;20044;-69
2023/06/12 12:34:36;;;;;;;4.38;3.97;;;;;;;;;;5040578;28;20047;-70
2023/06/12 12:37:05;;;;;;;5.15;4.00;;;;;;;;;;5047360;28;20037;-70
2023/06/12 12:39:31;;;;;;;4.65;3.88;;;;;;;;;;5048131;28;20056;-70
2023/06/12 12:41:58;;;;;;;5.90;4.10;;;;;;;;;;5047302;28;20083;-69
2023/06/12 12:44:24;;;;;;;5.13;3.90;;;;;;;;;;5045864;28;20041;-69
2023/06/12 12:46:51;;;;;;;4.93;4.05;;;;;;;;;;5044830;28;20041;-69
2023/06/12 12:49:19;;;;;;;4.43;3.80;;;;;;;;;;5047227;28;20120;-70
2023/06/12 12:51:45;;;;;;;7.43;4.07;;;;;;;;;;5051367;28;20142;-70
2023/06/12 12:54:12;;;;;;;4.72;3.88;;;;;;;;;;5068783;28;20486;-70
2023/06/12 12:56:39;;;;;;;3.92;3.47;;;;;;;;;;5058880;28;20069;-70
2023/06/12 12:59:06;;;;;;;3.85;3.47;;;;;;;;;;5045549;28;20509;-70
2023/06/12 13:01:33;;;;;;;5.82;4.07;;;;;;;;;;5049710;28;20056;-70
2023/06/12 13:04:00;;;;;;;4.90;3.33;;;;;;;;;;5040620;28;20053;-70
2023/06/12 13:06:28;;;;;;;4.55;3.25;;;;;;;;;;5049600;28;20044;-70
2023/06/12 13:08:54;;;;;;;4.50;3.47;;;;;;;;;;5058828;28;20287;-70
2023/06/12 13:11:21;;;;;;;4.47;3.40;;;;;;;;;;5047826;28;20133;-70
2023/06/12 13:13:47;;;;;;;4.15;3.80;;;;;;;;;;5048998;28;20045;-70
2023/06/12 13:16:14;;;;;;;3.72;3.40;;;;;;;;;;5049326;28;20047;-69
2023/06/12 13:18:41;;;;;;;4.00;3.55;;;;;;;;;;5046382;28;20478;-70
2023/06/12 13:21:08;;;;;;;3.97;3.55;;;;;;;;;;5055220;28;20091;-70
2023/06/12 13:23:36;;;;;;;4.22;3.45;;;;;;;;;;5045694;28;20047;-69
2023/06/12 13:26:02;;;;;;;8.32;3.97;;;;;;;;;;5050027;28;20037;-70
2023/06/12 13:28:29;;;;;;;3.55;3.20;;;;;;;;;;5047832;28;20045;-69
2023/06/12 13:30:56;;;;;;;5.38;3.20;;;;;;;;;;5034932;28;20047;-70
2023/06/12 13:33:22;;;;;;;5.20;3.55;;;;;;;;;;5051624;28;20469;-70
2023/06/12 13:35:49;;;;;;;3.80;3.50;;;;;;;;;;5045659;28;20041;-70
2023/06/12 13:38:16;;;;;;;4.50;3.85;;;;;;;;;;5049055;28;20094;-70
2023/06/12 13:40:44;;;;;;;3.70;3.40;;;;;;;;;;5052021;28;20063;-69
2023/06/12 13:43:10;;;;;;;4.38;3.97;;;;;;;;;;5052062;28;20052;-69
2023/06/12 13:45:37;;;;;;;3.80;3.40;;;;;;;;;;5052261;28;20053;-70
2023/06/12 13:48:04;;;;;;;4.65;3.65;;;;;;;;;;5049963;28;20041;-70
2023/06/12 13:50:31;;;;;;;4.15;3.40;;;;;;;;;;5070686;28;20045;-70
2023/06/12 13:52:57;;;;;;;4.60;3.65;;;;;;;;;;5058565;28;20045;-69
2023/06/12 13:55:24;;;;;;;3.90;3.60;;;;;;;;;;5057792;28;20043;-69
2023/06/12 13:57:56;;;;;;;5.20;3.50;;;;;;;;;;5073073;28;20076;-70
2023/06/12 14:00:23;;;;;;;3.70;3.40;;;;;;;;;;5072697;28;20090;-70
2023/06/12 14:02:51;;;;;;;4.60;3.70;;;;;;;;;;5070932;28;20060;-70
2023/06/12 14:05:18;;;;;;;4.10;3.80;;;;;;;;;;5063373;28;20319;-70
2023/06/12 14:07:44;;;;;;;4.53;4.10;;;;;;;;;;5051386;28;20051;-70
2023/06/12 14:10:11;;;;;;;5.30;3.90;;;;;;;;;;5052302;28;20049;-70
2023/06/12 14:12:38;;;;;;;3.80;3.50;;;;;;;;;;5066312;28;20040;-70
2023/06/12 14:15:07;;;;;;;4.30;3.80;;;;;;;;;;5066313;28;20037;-70
2023/06/12 14:17:33;;;;;;;4.05;3.65;;;;;;;;;;5052103;28;20051;-70
2023/06/12 14:20:03;;;;;;;5.35;3.60;;;;;;;;;;5059076;28;20418;-70
2023/06/12 14:22:30;;;;;;;4.15;3.67;;;;;;;;;;5051886;28;20102;-70
2023/06/12 14:24:57;;;;;;;5.43;3.92;;;;;;;;;;5051025;28;20040;-70
2023/06/12 14:27:23;;;;;;;4.18;3.50;;;;;;;;;;5064677;28;20482;-69
2023/06/12 14:29:50;;;;;;;5.05;3.60;;;;;;;;;;5061875;28;20056;-70
2023/06/12 14:32:18;;;;;;;5.63;3.72;;;;;;;;;;5052035;28;20410;-70
2023/06/12 14:34:45;;;;;;;3.97;3.67;;;;;;;;;;5052528;28;20045;-69
2023/06/12 14:37:11;;;;;;;4.35;3.95;;;;;;;;;;5046821;28;20049;-69
2023/06/12 14:39:38;;;;;;;5.10;4.03;;;;;;;;;;5052563;28;20041;-69
2023/06/12 14:42:05;;;;;;;4.57;3.75;;;;;;;;;;5071684;28;20052;-70
2023/06/12 14:44:32;;;;;;;4.60;4.00;;;;;;;;;;5053524;28;20144;-70
2023/06/12 14:46:58;;;;;;;3.88;3.58;;;;;;;;;;5041282;28;20064;-70